Terminal Aerodrome Forecast
Issued by NWS

Home | Current Version | Previous Version | Text Only | Print | Product List | Glossary On
Versions: 1 2 3 4 5 6 7 8 9 10 11 12 13 14 15
000
FTUS45 KGJT 162320
TAFMTJ
TAF
KMTJ 162320Z 1700/1724 34004KT P6SM SCT150 BKN200
     FM170200 14005KT P6SM BKN150
     FM171200 15005KT P6SM BKN120
     FM171800 34004KT P6SM BKN250=

USA.gov is the U.S. government's official web portal to all federal, state and local government web resources and services.